map of COD home
COD - Airport
Location
City:  Cody, Wyoming, United States
Name:Yellowstone Regional
ICAO:KCOD
IATA:COD
FAA LID:COD

Details
Type:Airport (Part 139 Class I)
Use:Public/Civil
Latitude:4431'13"N (44.520194)
Longitude:10901'26"W (-109.023805)
Datum:WGS 1984
Elevation:5102 ft (1555 m)
Variation:10.70E (WMM2015v2 magnetic declination)
-0.09 annual change
Runways:1
Longest:8268 × 100 ft (2520 × 30.5 m), paved

Time
Time Zone:UTC-7 (DST-6)
Local Time:

Weather
METAR:KCOD 041356Z AUTO 04006KT 8SM -SN OVC008 M21/M23 A2971 RMK AO2 SLP181 P0000 T12061228 FZRANO
TAF:KCOD 041136Z 0412/0512 02007KT P6SM OVC012
FM041900 03006KT P6SM SCT014 OVC030
FM050100 03006KT P6SM SCT025 BKN040
AMD LTD TO CLD VIS AND WIND

Related Locations
Nearby:
Farthest:RRG: 10669 mi / 17170 km
Plaine Corail [Sir Gatan Duval Airport (Plaine Corail Airport)], Rodrigues Island, MU

Find:

   beyond  
but within

Other Information
Maps:
NOTAMs:
Links:
Sources:

  
  • flag of United States
  • flag of Wyoming
  

Sectional Chart

Flight Planning
at skyvector.com

Satellite Image

Google Maps Satellite view

 

Copyright © 2004-2019 Karl L. Swartz. All rights reserved.
The Great Circle Mapper name and logo are trademarks of the Great Circle Mapper.
All other trademarks mentioned herein belong to their respective owners.
Please see credits for attibutions and further copyright information.

  Follow gcmap on Facebook Follow gcmap on Twitter GCmap on LinkedIn

hCard Microformat

Geo Microformat